Time;durP1;ratioP1;P1;durP2;ratioP2;P2;SDS_P1;SDS_P2;PMS_P1;PMS_P2;Temp;Humidity;BMP_temperature;BMP_pressure;BME280_temperature;BME280_humidity;BME280_pressure;Samples;Min_cycle;Max_cycle;Signal;HPM_P1;HPM_P2
2021/08/03 00:01:41;;;;;;;;;8.75;6.00;;;;;20.30;51.89;100893.31;5082200;28;45382;-49
2021/08/03 00:04:11;;;;;;;;;6.00;6.00;;;;;20.30;51.60;100890.66;5083274;28;45418;-50
2021/08/03 00:06:45;;;;;;;;;6.00;5.00;;;;;20.28;51.64;100895.22;5082981;28;46932;-50
2021/08/03 00:09:11;;;;;;;;;5.25;5.25;;;;;20.28;51.78;100897.91;5082876;28;45396;-50
2021/08/03 00:11:41;;;;;;;;;7.25;7.25;;;;;20.25;51.72;100893.59;5083070;27;45484;-50
2021/08/03 00:14:07;;;;;;;;;6.50;5.50;;;;;20.26;51.63;100887.31;5083045;28;45454;-49
2021/08/03 00:16:37;;;;;;;;;6.00;6.00;;;;;20.26;51.39;100891.78;5082771;28;46025;-47
2021/08/03 00:19:03;;;;;;;;;8.50;6.00;;;;;20.24;51.55;100886.53;5083005;28;45356;-51
2021/08/03 00:21:29;;;;;;;;;4.25;4.25;;;;;20.25;51.67;100887.38;5081331;27;45510;-49
2021/08/03 00:23:54;;;;;;;;;5.00;5.00;;;;;20.25;51.51;100887.38;5081275;28;45518;-51
2021/08/03 00:26:20;;;;;;;;;6.50;6.50;;;;;20.25;51.72;100880.25;5082623;28;45335;-51
2021/08/03 00:28:49;;;;;;;;;8.25;6.25;;;;;20.24;51.41;100877.66;5082722;28;45436;-50
2021/08/03 00:31:25;;;;;;;;;6.00;6.00;;;;;20.23;52.03;100875.94;5082814;28;45328;-47
2021/08/03 00:33:53;;;;;;;;;6.50;5.75;;;;;20.23;51.74;100867.94;5082653;28;45333;-49
2021/08/03 00:36:20;;;;;;;;;7.50;6.25;;;;;20.22;51.79;100863.53;5081289;28;46164;-50
2021/08/03 00:38:46;;;;;;;;;7.50;6.00;;;;;20.23;51.66;100862.59;5082321;28;45257;-51
2021/08/03 00:41:15;;;;;;;;;6.00;6.00;;;;;20.22;51.56;100858.19;5082635;27;45211;-51
2021/08/03 00:43:40;;;;;;;;;8.00;7.00;;;;;20.22;52.01;100858.19;5082503;28;45459;-49
2021/08/03 00:46:06;;;;;;;;;6.00;5.25;;;;;20.21;51.60;100856.47;5082380;28;46084;-50
2021/08/03 00:48:31;;;;;;;;;7.25;5.75;;;;;20.21;52.10;100854.66;5082045;28;45480;-48
2021/08/03 00:50:57;;;;;;;;;6.00;6.00;;;;;20.21;51.95;100864.47;5082646;27;45313;-52
2021/08/03 00:53:22;;;;;;;;;7.25;5.75;;;;;20.22;51.69;100850.19;5080976;28;45630;-51
2021/08/03 00:55:49;;;;;;;;;5.75;4.50;;;;;20.21;51.68;100853.81;5081131;28;46804;-49
2021/08/03 00:58:14;;;;;;;;;4.50;4.50;;;;;20.17;52.13;100845.09;5082154;28;45385;-51
2021/08/03 01:00:40;;;;;;;;;7.00;5.25;;;;;20.19;51.78;100848.56;5081085;28;45272;-51
2021/08/03 01:03:06;;;;;;;;;7.75;6.75;;;;;20.17;51.60;100847.75;5082185;28;45398;-51
2021/08/03 01:05:41;;;;;;;;;8.75;8.75;;;;;20.18;51.62;100854.81;5082305;28;46249;-51
2021/08/03 01:08:16;;;;;;;;;7.00;7.00;;;;;20.14;52.13;100843.44;5081995;28;45262;-50
2021/08/03 01:10:47;;;;;;;;;8.25;8.00;;;;;20.16;51.98;100848.69;5082223;27;45295;-51
2021/08/03 01:13:22;;;;;;;;;8.50;8.50;;;;;20.14;51.55;100848.78;5081798;28;45449;-51
2021/08/03 01:15:54;;;;;;;;;7.00;6.00;;;;;20.15;52.00;100857.66;5082109;28;46085;-47
2021/08/03 01:18:30;;;;;;;;;5.50;5.50;;;;;20.14;51.84;100854.13;5080608;28;45272;-51
2021/08/03 01:21:05;;;;;;;;;4.75;4.75;;;;;20.13;51.52;100844.38;5081865;27;45334;-52
2021/08/03 01:23:53;;;;;;;;;5.00;5.00;;;;;20.11;52.24;100845.41;5081970;28;45244;-50
2021/08/03 01:26:34;;;;;;;;;7.25;5.75;;;;;20.08;51.64;100833.09;5081586;28;45264;-51
2021/08/03 01:29:04;;;;;;;;;6.75;5.50;;;;;20.08;51.80;100832.25;5081598;28;45184;-51
2021/08/03 01:31:32;;;;;;;;;4.75;4.00;;;;;20.06;52.11;100829.69;5081955;28;45359;-48
2021/08/03 01:34:10;;;;;;;;;7.50;5.00;;;;;20.07;52.04;100834.03;5081628;28;45358;-51
2021/08/03 01:36:39;;;;;;;;;5.25;5.00;;;;;20.06;52.33;100829.69;5081744;28;45493;-51
2021/08/03 01:39:06;;;;;;;;;5.00;5.00;;;;;20.04;51.86;100823.56;5081368;28;45447;-49
2021/08/03 01:41:32;;;;;;;;;6.50;6.50;;;;;20.05;51.76;100824.41;5081782;28;45227;-51
2021/08/03 01:43:59;;;;;;;;;6.50;6.00;;;;;20.04;51.99;100818.22;5081309;28;45299;-52
2021/08/03 01:46:26;;;;;;;;;7.00;6.00;;;;;20.05;52.28;100819.06;5081402;28;45969;-51
2021/08/03 01:48:53;;;;;;;;;8.00;8.00;;;;;20.03;51.86;100816.47;5081449;28;45385;-51
2021/08/03 01:51:20;;;;;;;;;6.75;5.75;;;;;20.01;52.24;100813.03;5081594;28;45457;-50
2021/08/03 01:53:46;;;;;;;;;6.50;6.25;;;;;20.04;52.02;100818.22;5081026;28;45406;-48
2021/08/03 01:56:14;;;;;;;;;6.00;6.00;;;;;20.04;52.40;100815.53;5080046;28;47826;-51
2021/08/03 01:58:41;;;;;;;;;7.50;6.00;;;;;20.02;52.27;100806.75;5080651;28;45416;-52
2021/08/03 02:01:07;;;;;;;;;6.75;4.75;;;;;20.04;52.15;100814.69;5079826;27;45314;-50
2021/08/03 02:03:34;;;;;;;;;5.50;5.50;;;;;20.04;51.90;100826.22;5081153;28;45326;-51
2021/08/03 02:06:02;;;;;;;;;11.75;7.75;;;;;20.05;52.06;100827.94;5081133;28;46286;-51
2021/08/03 02:08:29;;;;;;;;;6.00;6.00;;;;;20.05;52.06;100829.72;5079570;28;45454;-51
2021/08/03 02:10:55;;;;;;;;;6.00;5.25;;;;;20.05;52.08;100830.63;5081349;28;45291;-49
2021/08/03 02:13:23;;;;;;;;;7.25;6.00;;;;;20.03;52.02;100826.31;5080782;28;45416;-52
2021/08/03 02:15:48;;;;;;;;;7.75;7.75;;;;;20.00;52.57;100824.66;5081115;28;45423;-50
2021/08/03 02:18:17;;;;;;;;;8.00;6.50;;;;;20.04;52.05;100828.88;5080913;28;45354;-51
2021/08/03 02:20:44;;;;;;;;;6.00;6.00;;;;;20.03;52.06;100827.16;5081020;27;45296;-51
2021/08/03 02:23:09;;;;;;;;;7.00;6.00;;;;;20.01;52.57;100823.69;5080593;28;45492;-52
2021/08/03 02:25:35;;;;;;;;;7.75;7.25;;;;;20.02;52.15;100820.09;5080950;28;45267;-52
2021/08/03 02:28:02;;;;;;;;;6.50;6.50;;;;;20.02;52.54;100828.09;5080571;28;45402;-50
2021/08/03 02:30:29;;;;;;;;;7.25;4.50;;;;;20.01;52.07;100825.50;5081028;28;45326;-51
2021/08/03 02:32:58;;;;;;;;;7.50;7.25;;;;;19.99;52.26;100825.59;5080597;28;45401;-51
2021/08/03 02:35:30;;;;;;;;;9.25;7.00;;;;;20.00;52.32;100830.00;5080791;27;46232;-50
2021/08/03 02:38:03;;;;;;;;;6.00;6.00;;;;;20.00;52.81;100824.66;5080512;28;45489;-49
2021/08/03 02:40:30;;;;;;;;;6.50;6.00;;;;;19.99;52.36;100820.25;5080779;28;45360;-51
2021/08/03 02:42:57;;;;;;;;;7.75;6.50;;;;;19.98;52.34;100813.19;5080693;28;45246;-51
2021/08/03 02:45:24;;;;;;;;;6.25;6.25;;;;;19.96;52.45;100807.06;5079237;28;45339;-51
2021/08/03 02:47:54;;;;;;;;;7.25;5.00;;;;;19.98;52.45;100806.06;5080547;28;45247;-50
2021/08/03 02:50:23;;;;;;;;;6.00;5.00;;;;;19.97;52.45;100812.34;5080521;28;45310;-50
2021/08/03 02:52:52;;;;;;;;;5.00;5.00;;;;;19.98;52.87;100807.88;5080353;28;45395;-50
2021/08/03 02:55:22;;;;;;;;;9.00;6.50;;;;;19.98;52.76;100813.19;5080374;28;45298;-52
2021/08/03 02:58:07;;;;;;;;;7.00;7.00;;;;;19.97;52.36;100815.03;5080345;28;45303;-48
2021/08/03 03:00:34;;;;;;;;;8.00;6.75;;;;;19.95;52.48;100808.88;5080833;28;45170;-51
2021/08/03 03:03:03;;;;;;;;;7.25;6.25;;;;;19.96;52.48;100810.63;5080396;28;45479;-53
2021/08/03 03:05:31;;;;;;;;;8.00;8.00;;;;;19.96;52.57;100812.41;5080384;28;46215;-51
2021/08/03 03:08:05;;;;;;;;;7.25;7.25;;;;;19.92;52.89;100803.72;5079873;28;45258;-49
2021/08/03 03:10:33;;;;;;;;;6.75;6.25;;;;;19.94;52.79;100807.16;5080270;27;45426;-50
2021/08/03 03:13:08;;;;;;;;;8.00;8.00;;;;;19.95;53.12;100808.03;5078696;28;45899;-49
2021/08/03 03:15:34;;;;;;;;;10.50;9.25;;;;;19.94;53.11;100806.31;5078908;28;45438;-49
2021/08/03 03:18:01;;;;;;;;;7.50;7.50;;;;;19.89;52.87;100790.53;5080072;28;45311;-51
2021/08/03 03:20:28;;;;;;;;;7.50;5.50;;;;;19.91;52.89;100787.78;5080153;28;45314;-51
2021/08/03 03:22:55;;;;;;;;;7.75;7.75;;;;;19.90;52.76;100789.59;5079768;28;45319;-52
2021/08/03 03:25:23;;;;;;;;;6.25;6.25;;;;;19.91;52.98;100793.13;5079952;28;46146;-51
2021/08/03 03:27:54;;;;;;;;;7.00;7.00;;;;;19.89;52.62;100792.38;5079970;28;45166;-52
2021/08/03 03:30:19;;;;;;;;;7.00;6.00;;;;;19.90;52.74;100799.41;5079017;27;45476;-52
2021/08/03 03:32:47;;;;;;;;;5.50;5.00;;;;;19.91;52.87;100804.66;5079939;28;45316;-51
2021/08/03 03:35:18;;;;;;;;;7.00;7.00;;;;;19.91;53.01;100809.13;5080047;27;46085;-51
2021/08/03 03:37:44;;;;;;;;;7.50;7.00;;;;;19.91;53.08;100796.66;5078295;28;45504;-48
2021/08/03 03:40:13;;;;;;;;;7.25;6.25;;;;;19.88;53.00;100790.63;5080066;27;45351;-48
2021/08/03 03:42:40;;;;;;;;;6.25;6.00;;;;;19.88;53.01;100788.81;5079645;28;45180;-52
2021/08/03 03:45:07;;;;;;;;;8.25;8.25;;;;;19.87;53.45;100784.41;5078441;28;48198;-49
2021/08/03 03:47:36;;;;;;;;;6.50;5.50;;;;;19.86;53.58;100785.38;5079626;28;45337;-52
2021/08/03 03:50:14;;;;;;;;;10.00;8.50;;;;;19.84;53.24;100781.06;5078454;27;45266;-52
2021/08/03 03:52:45;;;;;;;;;14.50;10.25;;;;;19.85;53.74;100785.44;5080024;28;45378;-50
2021/08/03 03:55:14;;;;;;;;;7.00;7.00;;;;;19.84;53.23;100792.59;5079640;28;46394;-53
2021/08/03 03:57:42;;;;;;;;;6.25;6.25;;;;;19.82;53.36;100778.44;5079714;28;45553;-50
2021/08/03 04:00:08;;;;;;;;;7.50;7.50;;;;;19.86;53.60;100800.50;5079679;28;45349;-49
2021/08/03 04:02:35;;;;;;;;;11.00;9.00;;;;;19.84;53.77;100794.41;5079557;28;45605;-49
2021/08/03 04:05:02;;;;;;;;;8.50;8.50;;;;;19.84;53.54;100802.41;5079475;28;46298;-50
2021/08/03 04:07:30;;;;;;;;;9.25;8.50;;;;;19.82;53.34;100799.75;5078217;28;45356;-52
2021/08/03 04:10:07;;;;;;;;;6.00;6.00;;;;;19.83;53.56;100798.84;5079274;28;45464;-51
2021/08/03 04:12:33;;;;;;;;;9.75;9.75;;;;;19.81;53.63;100801.59;5079396;28;45382;-51
2021/08/03 04:14:58;;;;;;;;;9.75;8.00;;;;;19.83;53.58;100809.53;5079241;28;45513;-51
2021/08/03 04:17:24;;;;;;;;;8.25;8.25;;;;;19.83;53.88;100808.69;5079562;28;45383;-52
2021/08/03 04:19:49;;;;;;;;;11.00;8.50;;;;;19.80;53.69;100801.66;5079180;27;45531;-47
2021/08/03 04:22:14;;;;;;;;;12.25;10.50;;;;;19.82;53.64;100810.44;5080004;28;45226;-51
2021/08/03 04:24:40;;;;;;;;;10.50;9.50;;;;;19.83;53.78;100808.69;5082420;28;46196;-48
2021/08/03 04:27:05;;;;;;;;;9.50;9.50;;;;;19.81;53.64;100801.59;5081405;28;45764;-47
2021/08/03 04:29:31;;;;;;;;;11.25;10.00;;;;;19.82;53.97;100802.44;5082867;28;45252;-50
2021/08/03 04:31:56;;;;;;;;;10.75;10.25;;;;;19.79;53.67;100797.28;5082959;28;45146;-51
2021/08/03 04:34:22;;;;;;;;;11.50;10.50;;;;;19.83;53.84;100806.00;5081241;28;46149;-52
2021/08/03 04:36:48;;;;;;;;;12.00;10.50;;;;;19.83;53.65;100798.00;5083000;28;45239;-51
2021/08/03 04:39:13;;;;;;;;;11.75;9.75;;;;;19.81;53.58;100798.06;5082470;28;45265;-51
2021/08/03 04:41:39;;;;;;;;;8.50;8.25;;;;;19.79;53.88;100798.13;5081329;27;45264;-49
2021/08/03 04:44:05;;;;;;;;;8.75;7.00;;;;;19.79;53.72;100795.47;5082313;28;45399;-51
2021/08/03 04:46:30;;;;;;;;;8.00;7.50;;;;;19.76;53.91;100800.97;5082822;28;45440;-52
2021/08/03 04:48:55;;;;;;;;;9.00;7.50;;;;;19.77;54.08;100805.34;5064279;28;45449;-52
2021/08/03 04:51:20;;;;;;;;;8.25;7.75;;;;;19.76;53.67;100800.09;5082404;28;45466;-47
2021/08/03 04:53:46;;;;;;;;;9.00;8.00;;;;;19.75;54.05;100799.22;5082001;28;46233;-51
2021/08/03 04:56:11;;;;;;;;;5.25;5.25;;;;;19.73;53.92;100795.78;5082368;28;47565;-49
2021/08/03 04:58:39;;;;;;;;;8.50;8.50;;;;;19.73;53.77;100800.25;5082378;28;45220;-52
2021/08/03 05:01:04;;;;;;;;;9.50;9.50;;;;;19.71;54.04;100792.34;5081037;28;45474;-50
2021/08/03 05:03:30;;;;;;;;;9.75;8.25;;;;;19.70;53.81;100790.63;5082143;28;45247;-50
2021/08/03 05:05:55;;;;;;;;;6.50;6.50;;;;;19.70;53.90;100797.72;5082444;28;45306;-50
2021/08/03 05:08:20;;;;;;;;;7.75;7.00;;;;;19.69;53.80;100796.88;5080683;28;45228;-49
2021/08/03 05:10:46;;;;;;;;;6.50;6.50;;;;;19.66;53.68;100789.06;5082394;28;45154;-50
2021/08/03 05:13:11;;;;;;;;;7.50;6.50;;;;;19.66;53.93;100794.38;5081845;28;46012;-49
2021/08/03 05:15:36;;;;;;;;;7.50;7.50;;;;;19.66;53.92;100794.38;5082375;28;45185;-49
2021/08/03 05:18:02;;;;;;;;;8.00;7.50;;;;;19.65;53.62;100790.84;5080969;28;45747;-51
2021/08/03 05:20:27;;;;;;;;;7.00;7.00;;;;;19.63;53.77;100791.88;5081917;27;45195;-51
2021/08/03 05:22:52;;;;;;;;;11.25;9.00;;;;;19.62;54.06;100801.69;5080381;28;47307;-50
2021/08/03 05:25:18;;;;;;;;;8.75;8.00;;;;;19.61;53.46;100794.63;5082122;28;45195;-50
2021/08/03 05:27:43;;;;;;;;;6.00;6.00;;;;;19.61;54.01;100794.63;5080431;28;45181;-49
2021/08/03 05:30:10;;;;;;;;;9.00;9.00;;;;;19.61;53.75;100793.75;5082113;27;45399;-51
2021/08/03 05:32:35;;;;;;;;;9.00;9.00;;;;;19.60;53.94;100797.38;5080321;28;47559;-51
2021/08/03 05:35:01;;;;;;;;;10.75;9.50;;;;;19.59;54.15;100799.16;5079186;28;45424;-50
2021/08/03 05:37:27;;;;;;;;;9.00;9.00;;;;;19.60;53.68;100802.69;5080507;28;45311;-49
2021/08/03 05:39:53;;;;;;;;;10.75;9.75;;;;;19.60;53.57;100794.69;5081339;28;45427;-51
2021/08/03 05:42:19;;;;;;;;;7.00;7.00;;;;;19.58;53.69;100794.75;5081325;28;46308;-51
2021/08/03 05:44:44;;;;;;;;;12.00;10.00;;;;;19.62;53.80;100793.69;5080356;28;45405;-49
2021/08/03 05:47:09;;;;;;;;;10.25;8.25;;;;;19.62;53.90;100799.00;5081541;28;45234;-50
2021/08/03 05:49:35;;;;;;;;;7.00;7.00;;;;;19.63;54.09;100807.84;5081724;28;45268;-52
2021/08/03 05:52:00;;;;;;;;;9.25;9.25;;;;;19.64;54.29;100801.59;5081327;27;45286;-51
2021/08/03 05:54:26;;;;;;;;;10.75;9.25;;;;;19.64;54.12;100799.78;5080056;28;45494;-50
2021/08/03 05:56:52;;;;;;;;;9.75;9.75;;;;;19.64;54.02;100794.44;5081332;28;45246;-52
2021/08/03 05:59:17;;;;;;;;;9.00;9.00;;;;;19.63;54.51;100799.84;5080003;28;45247;-51
2021/08/03 06:01:43;;;;;;;;;10.50;9.25;;;;;19.62;54.33;100800.78;5079744;27;45300;-49
2021/08/03 06:04:08;;;;;;;;;9.75;8.75;;;;;19.59;54.00;100795.63;5081454;28;45243;-51
2021/08/03 06:06:42;;;;;;;;;10.00;8.25;;;;;19.59;54.09;100795.63;5081201;28;45239;-51
2021/08/03 06:09:09;;;;;;;;;12.50;10.75;;;;;19.59;54.46;100801.81;5063037;28;45237;-51
2021/08/03 06:11:36;;;;;;;;;9.25;9.25;;;;;19.58;54.40;100805.41;5080892;27;46231;-51
2021/08/03 06:14:03;;;;;;;;;13.25;8.25;;;;;19.58;54.23;100807.22;5079565;28;45366;-52
2021/08/03 06:16:30;;;;;;;;;8.25;8.25;;;;;19.57;54.33;100802.84;5081125;28;45283;-49
2021/08/03 06:19:02;;;;;;;;;8.25;8.00;;;;;19.58;53.96;100807.22;5079926;28;45422;-52
2021/08/03 06:21:27;;;;;;;;;6.50;6.50;;;;;19.58;54.12;100807.22;5080613;27;45436;-51
2021/08/03 06:23:53;;;;;;;;;9.25;8.00;;;;;19.58;54.09;100813.41;5079509;28;45307;-52
2021/08/03 06:26:20;;;;;;;;;9.50;8.50;;;;;19.60;54.53;100813.34;5081029;28;45354;-52
2021/08/03 06:28:54;;;;;;;;;9.00;8.75;;;;;19.61;54.39;100812.41;5079505;28;45503;-52
2021/08/03 06:31:19;;;;;;;;;10.25;8.50;;;;;19.61;54.19;100821.28;5079464;28;48167;-48
2021/08/03 06:33:48;;;;;;;;;8.50;7.00;;;;;19.60;54.27;100808.03;5080675;28;45406;-52
2021/08/03 06:36:16;;;;;;;;;8.00;8.00;;;;;19.64;54.29;100820.25;5067806;28;45224;-48
2021/08/03 06:38:41;;;;;;;;;7.75;7.00;;;;;19.64;54.37;100825.56;5080466;28;45236;-52
2021/08/03 06:41:15;;;;;;;;;7.75;7.00;;;;;19.65;54.05;100822.81;5080901;27;45316;-52
2021/08/03 06:43:55;;;;;;;;;7.25;5.00;;;;;19.68;54.15;100828.97;5080689;28;45421;-51
2021/08/03 06:46:22;;;;;;;;;6.75;6.50;;;;;19.68;54.37;100819.16;5080374;28;45266;-50
2021/08/03 06:49:05;;;;;;;;;4.00;4.00;;;;;19.69;54.46;100818.22;5080329;28;45215;-48
2021/08/03 06:51:33;;;;;;;;;7.00;5.50;;;;;19.70;54.59;100827.06;5080546;28;45468;-50
2021/08/03 06:54:03;;;;;;;;;5.75;5.75;;;;;19.68;54.33;100820.97;5080127;28;45180;-51
2021/08/03 06:56:32;;;;;;;;;5.00;4.50;;;;;19.68;54.57;100821.81;5080587;28;45428;-49
2021/08/03 06:59:07;;;;;;;;;4.50;4.50;;;;;19.69;54.32;100826.19;5080608;28;45445;-51
2021/08/03 07:02:05;;;;;;;;;9.25;6.50;;;;;19.70;54.19;100833.25;5080059;28;46440;-52
2021/08/03 07:04:46;;;;;;;;;6.50;5.50;;;;;19.70;54.56;100835.06;5080332;28;45390;-49
2021/08/03 07:07:12;;;;;;;;;6.00;5.25;;;;;19.70;54.47;100837.72;5080463;28;45311;-51
2021/08/03 07:09:42;;;;;;;;;6.00;6.00;;;;;19.69;54.46;100838.69;5078563;28;45247;-51
2021/08/03 07:12:09;;;;;;;;;7.75;7.75;;;;;19.68;54.88;100839.63;5078837;28;47035;-50
2021/08/03 07:14:37;;;;;;;;;9.75;9.00;;;;;19.68;54.53;100840.47;5080108;28;45264;-48
2021/08/03 07:17:04;;;;;;;;;8.00;6.50;;;;;19.65;54.39;100836.16;5080303;28;45245;-53
2021/08/03 07:19:30;;;;;;;;;8.75;8.75;;;;;19.69;54.79;100842.19;5080029;28;45251;-51
2021/08/03 07:21:56;;;;;;;;;6.50;5.50;;;;;19.69;54.32;100833.34;5079931;28;45610;-51
2021/08/03 07:24:23;;;;;;;;;8.00;8.00;;;;;19.72;54.87;100841.19;5079853;28;45392;-52
2021/08/03 07:26:48;;;;;;;;;7.50;7.50;;;;;19.72;54.97;100849.19;5080118;28;45394;-52
2021/08/03 07:29:14;;;;;;;;;8.00;7.25;;;;;19.73;54.87;100846.44;5079907;28;45581;-51
2021/08/03 07:31:42;;;;;;;;;8.25;7.00;;;;;19.74;54.51;100842.81;5080014;28;45526;-51
2021/08/03 07:34:10;;;;;;;;;6.75;6.75;;;;;19.77;54.54;100857.78;5078549;28;45262;-49
2021/08/03 07:36:36;;;;;;;;;6.00;6.00;;;;;19.79;54.58;100863.94;5080226;28;45338;-51
2021/08/03 07:39:06;;;;;;;;;6.00;6.00;;;;;19.82;54.81;100869.09;5079523;28;45604;-50
2021/08/03 07:41:32;;;;;;;;;3.50;3.50;;;;;19.81;54.90;100860.25;5079679;28;46572;-52
2021/08/03 07:43:57;;;;;;;;;4.25;4.25;;;;;19.85;54.76;100870.75;5079664;28;45243;-52
2021/08/03 07:46:23;;;;;;;;;6.50;6.50;;;;;19.88;54.69;100865.28;5079958;28;45242;-48
2021/08/03 07:48:51;;;;;;;;;6.75;6.75;;;;;19.89;54.43;100867.03;5079670;28;45231;-52
2021/08/03 07:51:20;;;;;;;;;7.25;7.25;;;;;19.90;54.84;100860.72;5078362;28;47233;-49
2021/08/03 07:53:47;;;;;;;;;6.75;4.00;;;;;19.95;54.30;100872.03;5079368;28;45419;-51
2021/08/03 07:56:16;;;;;;;;;5.25;4.50;;;;;19.97;54.47;100863.03;5079689;28;45231;-51
2021/08/03 07:58:41;;;;;;;;;13.25;10.25;;;;;19.99;54.49;100860.28;5082015;28;45326;-51
2021/08/03 08:01:07;;;;;;;;;5.00;5.00;;;;;20.04;54.94;100858.22;5083037;27;46233;-51
2021/08/03 08:03:34;;;;;;;;;7.75;6.25;;;;;20.08;54.60;100866.94;5083074;28;45401;-51
2021/08/03 08:06:00;;;;;;;;;6.00;3.00;;;;;20.12;54.74;100863.16;5083274;28;45527;-52
2021/08/03 08:08:25;;;;;;;;;3.00;3.00;;;;;20.16;54.47;100861.19;5081279;28;45279;-51
2021/08/03 08:10:51;;;;;;;;;3.00;3.00;;;;;20.18;54.38;100856.66;5081675;27;46966;-52
2021/08/03 08:13:16;;;;;;;;;2.50;2.50;;;;;20.22;54.15;100853.72;5081614;28;45940;-50
2021/08/03 08:15:42;;;;;;;;;3.00;2.75;;;;;20.26;54.67;100857.09;5081928;28;45339;-52
2021/08/03 08:18:08;;;;;;;;;2.00;1.00;;;;;20.29;54.17;100857.78;5082872;28;45223;-49
2021/08/03 08:20:38;;;;;;;;;2.00;2.00;;;;;20.33;53.88;100853.16;5082732;27;46041;-51
2021/08/03 08:23:05;;;;;;;;;3.00;3.00;;;;;20.36;53.76;100852.97;5082527;28;45322;-51
2021/08/03 08:25:31;;;;;;;;;1.00;1.00;;;;;20.40;53.78;100851.88;5083231;28;45230;-52
2021/08/03 08:27:56;;;;;;;;;2.00;1.00;;;;;20.44;54.27;100845.44;5082472;28;45161;-51
2021/08/03 08:30:22;;;;;;;;;3.25;3.25;;;;;20.46;53.67;100848.00;5082805;27;45261;-51
2021/08/03 08:32:47;;;;;;;;;2.50;2.00;;;;;20.48;54.21;100843.47;5081336;28;45373;-49
2021/08/03 08:35:13;;;;;;;;;4.50;4.50;;;;;20.52;54.14;100841.50;5083043;27;45227;-51
2021/08/03 08:37:38;;;;;;;;;2.00;2.00;;;;;20.55;53.40;100841.31;5082373;28;45241;-51
2021/08/03 08:40:05;;;;;;;;;3.00;3.00;;;;;20.58;53.42;100839.34;5082591;27;45196;-49
2021/08/03 08:42:32;;;;;;;;;3.25;3.25;;;;;20.61;53.27;100838.31;5082312;28;45361;-51
2021/08/03 08:44:59;;;;;;;;;3.00;3.00;;;;;20.63;53.50;100853.31;5081219;28;45393;-48
2021/08/03 08:47:26;;;;;;;;;3.00;3.00;;;;;20.69;53.28;100853.91;5082202;28;45425;-50
2021/08/03 08:49:51;;;;;;;;;3.00;3.00;;;;;20.72;53.34;100843.94;5081078;27;46400;-49
2021/08/03 08:52:17;;;;;;;;;2.50;2.50;;;;;20.75;53.25;100849.13;5082270;28;45227;-51
2021/08/03 08:54:42;;;;;;;;;3.25;2.25;;;;;20.78;53.04;100854.28;5082426;28;45326;-50
2021/08/03 08:57:08;;;;;;;;;5.75;4.00;;;;;20.83;52.99;100853.19;5082127;28;45230;-53
2021/08/03 08:59:35;;;;;;;;;2.25;2.25;;;;;20.88;53.01;100853.78;5082421;28;45404;-50
2021/08/03 09:02:00;;;;;;;;;4.50;4.50;;;;;20.92;53.18;100855.34;5081932;27;45226;-50
2021/08/03 09:04:26;;;;;;;;;3.00;3.00;;;;;20.99;53.45;100855.84;5080930;28;45445;-49
2021/08/03 09:07:08;;;;;;;;;3.00;3.00;;;;;21.05;52.93;100856.38;5081924;28;45357;-51
2021/08/03 09:09:41;;;;;;;;;2.50;2.00;;;;;21.12;52.94;100851.56;5081717;28;46203;-50
2021/08/03 09:12:07;;;;;;;;;3.75;2.50;;;;;21.19;53.02;100846.72;5081966;27;45216;-52
2021/08/03 09:14:42;;;;;;;;;6.75;4.50;;;;;21.27;53.28;100853.34;5080786;28;45281;-51
2021/08/03 09:17:09;;;;;;;;;4.25;3.00;;;;;21.36;52.50;100843.94;5082192;27;45277;-52
2021/08/03 09:19:41;;;;;;;;;3.50;3.00;;;;;21.45;52.84;100853.22;5081757;28;45366;-49
2021/08/03 09:22:10;;;;;;;;;7.75;5.00;;;;;21.54;52.63;100852.69;5081815;28;45291;-51
2021/08/03 09:24:36;;;;;;;;;2.75;2.75;;;;;21.60;52.93;100846.16;5081793;28;45546;-49
2021/08/03 09:27:01;;;;;;;;;6.00;5.00;;;;;21.72;52.16;100849.91;5081657;28;45471;-48
2021/08/03 09:29:27;;;;;;;;;5.75;5.75;;;;;21.79;52.73;100837.06;5080392;28;48224;-49
2021/08/03 09:31:57;;;;;;;;;8.75;7.25;;;;;21.84;52.47;100843.81;5081842;27;45310;-52
2021/08/03 09:34:22;;;;;;;;;6.50;5.25;;;;;21.91;52.30;100849.66;5080540;28;45454;-52
2021/08/03 09:36:49;;;;;;;;;7.25;7.00;;;;;21.97;52.71;100854.63;5081728;28;45157;-50
2021/08/03 09:39:41;;;;;;;;;7.00;7.00;;;;;22.04;52.44;100852.47;5081223;28;45178;-51
2021/08/03 09:42:18;;;;;;;;;3.75;3.50;;;;;22.07;51.97;100855.84;5076294;28;45581;-50
2021/08/03 09:44:44;;;;;;;;;5.50;5.50;;;;;22.11;52.09;100858.31;5081896;28;45322;-48
2021/08/03 09:47:10;;;;;;;;;3.25;3.25;;;;;22.14;51.36;100852.75;5081318;28;45252;-52
2021/08/03 09:49:38;;;;;;;;;6.75;5.00;;;;;22.15;51.87;100851.81;5079983;28;45876;-52
2021/08/03 09:52:08;;;;;;;;;6.00;6.00;;;;;22.18;51.59;100848.97;5081259;27;45330;-50
2021/08/03 09:54:35;;;;;;;;;5.00;5.00;;;;;22.21;51.92;100851.44;5081479;28;45425;-51
2021/08/03 09:57:02;;;;;;;;;7.00;6.00;;;;;22.23;51.34;100846.84;5081091;28;45545;-49
2021/08/03 09:59:37;;;;;;;;;6.50;4.50;;;;;22.25;51.42;100839.59;5081401;28;45380;-51
2021/08/03 10:02:03;;;;;;;;;5.00;5.00;;;;;22.32;51.45;100848.94;5080945;28;45381;-48
2021/08/03 10:04:31;;;;;;;;;4.00;3.50;;;;;22.36;51.23;100845.16;5081326;28;45324;-52
2021/08/03 10:06:57;;;;;;;;;3.00;3.00;;;;;22.43;51.45;100844.78;5079759;28;45282;-53
2021/08/03 10:09:22;;;;;;;;;4.75;3.50;;;;;22.49;51.34;100847.06;5079482;28;46323;-52
2021/08/03 10:11:48;;;;;;;;;5.25;3.50;;;;;22.55;51.36;100833.28;5081009;27;45275;-50
2021/08/03 10:14:14;;;;;;;;;4.75;4.00;;;;;22.61;50.79;100835.59;5081412;28;45208;-52
2021/08/03 10:16:40;;;;;;;;;5.25;5.25;;;;;22.66;50.78;100838.81;5079590;28;45447;-51
2021/08/03 10:19:05;;;;;;;;;4.00;4.00;;;;;22.70;50.67;100842.19;5081032;28;45392;-51
2021/08/03 10:21:37;;;;;;;;;6.25;5.00;;;;;22.73;50.47;100848.19;5079999;27;45562;-52
2021/08/03 10:24:28;;;;;;;;;6.00;6.00;;;;;22.80;50.52;100847.81;5080821;28;45241;-50
2021/08/03 10:27:11;;;;;;;;;5.00;5.00;;;;;22.84;50.62;100849.31;5080933;28;45318;-51
2021/08/03 10:29:39;;;;;;;;;5.75;4.75;;;;;22.86;50.49;100837.56;5080587;28;47104;-51
2021/08/03 10:32:05;;;;;;;;;3.25;3.25;;;;;22.89;50.18;100837.38;5080629;28;45701;-50
2021/08/03 10:34:42;;;;;;;;;6.00;5.75;;;;;22.93;50.05;100838.03;5080654;28;45488;-52
2021/08/03 10:37:11;;;;;;;;;5.50;5.50;;;;;22.94;49.93;100833.53;5080779;28;45316;-50
2021/08/03 10:39:51;;;;;;;;;4.00;4.00;;;;;23.00;50.08;100833.97;5080389;28;46113;-52
2021/08/03 10:42:17;;;;;;;;;10.50;10.50;;;;;23.05;49.63;100836.38;5080277;28;45295;-50
2021/08/03 10:44:45;;;;;;;;;5.25;4.25;;;;;23.12;49.93;100834.13;5080842;28;45236;-52
2021/08/03 10:47:36;;;;;;;;;6.25;3.25;;;;;23.19;49.85;100831.00;5080450;28;45623;-48
2021/08/03 10:50:13;;;;;;;;;5.50;5.50;;;;;23.32;49.79;100830.16;5080286;27;47096;-51
2021/08/03 10:52:54;;;;;;;;;8.75;6.00;;;;;23.45;49.74;100827.56;5080524;28;45166;-52
2021/08/03 10:55:37;;;;;;;;;36.75;32.25;;;;;23.63;49.58;100828.97;5080387;28;45244;-50
2021/08/03 10:58:08;;;;;;;;;12.00;11.50;;;;;23.81;49.58;100834.91;5080396;28;45314;-51
2021/08/03 11:00:47;;;;;;;;;5.00;4.00;;;;;23.98;49.39;100832.91;5080225;27;45269;-51
2021/08/03 11:03:34;;;;;;;;;6.75;5.00;;;;;24.16;49.48;100836.13;5078727;28;45314;-50
2021/08/03 11:06:05;;;;;;;;;6.75;5.00;;;;;24.31;49.73;100835.06;5080536;28;45382;-52
2021/08/03 11:08:31;;;;;;;;;6.50;4.75;;;;;24.44;49.63;100836.88;5079716;28;45239;-48
2021/08/03 11:11:07;;;;;;;;;3.75;3.75;;;;;24.57;49.27;100836.88;5078813;28;47366;-49
2021/08/03 11:13:56;;;;;;;;;6.25;6.25;;;;;24.67;49.39;100837.94;5080228;28;45314;-52
2021/08/03 11:16:21;;;;;;;;;5.00;5.00;;;;;24.74;49.33;100843.72;5078870;28;45357;-54
2021/08/03 11:18:50;;;;;;;;;5.75;5.75;;;;;24.78;49.33;100847.91;5080180;28;45246;-51
2021/08/03 11:21:36;;;;;;;;;5.25;5.25;;;;;24.83;48.55;100845.75;5079775;27;47065;-47
2021/08/03 11:24:09;;;;;;;;;5.50;4.25;;;;;24.87;48.85;100847.25;5072208;27;45541;-47
2021/08/03 11:26:38;;;;;;;;;3.50;3.00;;;;;24.89;48.26;100842.63;5080384;27;45229;-47
2021/08/03 11:29:10;;;;;;;;;4.00;2.25;;;;;24.90;48.57;100840.78;5079728;28;45542;-50
2021/08/03 11:31:47;;;;;;;;;4.75;4.75;;;;;24.92;48.23;100838.84;5079893;27;45305;-48